Vingtetun — JG4912 — position and weather

sailwx.info

Track history (hours):
 
Tides and Currents Weather Stations Pressure Air Temp Water Temp Dewpoint Dewpoint Depression Visibility Wind Speed Wind Dir Waves Ship Positions

Vingtetun

Last reported at 2018-Jul-21 12:09 UTC. Time now 2018-Jul-22 01:03 UTC.
Position N 35°39' E 139°46'.

Length 65 m; draft 2.7 m.

Type: Passenger vessel. MMSI: 7374127.

Date/timePositionNaut miles runAvg speedWind from/ knotsBaromVisibWave heightAir tempDewpointWater temp
2018-Jul-21 12:09N 35°39' E 139°46'1 3.8
2018-Jul-21 11:59N 35°39' E 139°46'4 8.2
2018-Jul-21 11:30N 35°35' E 139°48'0 0.4
2018-Jul-21 10:57N 35°35' E 139°47'4 2.5
2018-Jul-21 09:10N 35°39' E 139°46'1 3.7
2018-Jul-21 09:00N 35°39' E 139°46'4 7.5
2018-Jul-21 08:29N 35°35' E 139°48'0 0.5
2018-Jul-21 08:00N 35°35' E 139°47'4 1.3
2018-Jul-21 04:46N 35°39' E 139°46'2 6.6
2018-Jul-21 04:29N 35°37' E 139°46'4 7.5
2018-Jul-21 04:00N 35°34' E 139°48'3 5.1
2018-Jul-21 03:25N 35°36' E 139°46'3 0.2
2018-Jul-20 12:09N 35°39' E 139°46'1 3.9
2018-Jul-20 12:00N 35°39' E 139°46'4 8.0
2018-Jul-20 11:30N 35°35' E 139°48'0 0.3
2018-Jul-20 10:59N 35°35' E 139°47'4 1.9
2018-Jul-20 09:00N 35°38' E 139°46'4 6.6
2018-Jul-20 08:27N 35°35' E 139°48'1 2.2
2018-Jul-20 07:52N 35°36' E 139°47'3 6.7
2018-Jul-20 07:24N 35°39' E 139°46'0 0.0
2018-Jul-20 04:47N 35°39' E 139°46'2 7.1
2018-Jul-20 04:29N 35°37' E 139°46'4 7.6
2018-Jul-20 04:00N 35°34' E 139°48'4 5.5
2018-Jul-20 03:21N 35°37' E 139°46'2 0.1
2018-Jul-19 12:11N 35°39' E 139°46'1 4.5
2018-Jul-19 11:59N 35°38' E 139°46'4 8.5
2018-Jul-19 11:29N 35°34' E 139°48'1 1.1
2018-Jul-19 10:58N 35°35' E 139°48'4 2.5
2018-Jul-19 09:10N 35°39' E 139°46'1 4.2
2018-Jul-19 09:00N 35°38' E 139°46'4 7.9
2018-Jul-19 08:30N 35°35' E 139°48'0 0.8
2018-Jul-19 08:00N 35°35' E 139°47'4 1.4
2018-Jul-19 04:50N 35°39' E 139°46'2 6.1
2018-Jul-19 04:28N 35°37' E 139°46'4 8.2
2018-Jul-19 04:00N 35°34' E 139°48'4 5.6
2018-Jul-19 03:20N 35°37' E 139°46'2 0.4
2018-Jul-18 21:20N 35°39' E 139°46'0 0.0
2018-Jul-18 20:50N 35°39' E 139°46'0 0.0
2018-Jul-18 19:38N 35°39' E 139°46'0 0.0
2018-Jul-18 12:10N 35°39' E 139°46'1 4.2
2018-Jul-18 12:00N 35°38' E 139°46'5 8.2
2018-Jul-18 11:25N 35°34' E 139°49'5 5.0
2018-Jul-18 10:29N 35°38' E 139°46'1 0.6
2018-Jul-18 09:09N 35°39' E 139°46'1 4.8
2018-Jul-18 08:57N 35°38' E 139°46'4 8.4
2018-Jul-18 08:28N 35°35' E 139°48'0 0.8
2018-Jul-18 08:00N 35°35' E 139°48'5 1.5
2018-Jul-18 04:51N 35°39' E 139°46'2 5.9
2018-Jul-18 04:27N 35°37' E 139°46'4 7.9
2018-Jul-18 04:00N 35°34' E 139°49'4 5.6
2018-Jul-18 03:19N 35°37' E 139°46'2 0.2
2018-Jul-17 16:38N 35°39' E 139°46'0 0.0
2018-Jul-17 12:10N 35°39' E 139°46'1 3.9
2018-Jul-17 12:00N 35°38' E 139°46'4 7.5
2018-Jul-17 11:24N 35°35' E 139°48'1 1.3
2018-Jul-17 11:00N 35°35' E 139°48'4 8.0
2018-Jul-17 10:30N 35°38' E 139°46'1 0.7
2018-Jul-17 09:08N 35°39' E 139°46'1 3.9
2018-Jul-17 08:59N 35°39' E 139°46'4 7.8
2018-Jul-17 08:31N 35°35' E 139°48'0 0.4
2018-Jul-17 07:58N 35°35' E 139°48'4 1.4
2018-Jul-17 04:49N 35°39' E 139°46'2 5.9
2018-Jul-17 04:27N 35°37' E 139°46'4 8.0
2018-Jul-17 03:59N 35°34' E 139°48'4 5.8
2018-Jul-17 03:18N 35°37' E 139°46'2 0.1
2018-Jul-16 12:09N 35°39' E 139°46'1 4.0
2018-Jul-16 12:00N 35°39' E 139°46'4 7.5
2018-Jul-16 11:25N 35°35' E 139°48'1 1.5
2018-Jul-16 10:57N 35°35' E 139°48'4 8.0
2018-Jul-16 10:28N 35°38' E 139°46'1 0.6
2018-Jul-16 09:06N 35°39' E 139°46'0 3.7
2018-Jul-16 09:00N 35°39' E 139°46'4 7.5
2018-Jul-16 08:30N 35°35' E 139°48'0 0.7
2018-Jul-16 07:59N 35°35' E 139°48'4 7.7
2018-Jul-16 07:30N 35°38' E 139°46'1 0.3
2018-Jul-16 04:54N 35°39' E 139°46'2 5.2
2018-Jul-16 04:29N 35°37' E 139°46'4 8.1
2018-Jul-16 04:00N 35°34' E 139°49'3 5.2
2018-Jul-16 03:23N 35°37' E 139°46'3 0.2
2018-Jul-15 12:10N 35°39' E 139°46'2 6.2
2018-Jul-15 11:47N 35°37' E 139°46'3 8.1
2018-Jul-15 11:26N 35°35' E 139°48'1 1.2
2018-Jul-15 10:59N 35°35' E 139°48'5 2.4
2018-Jul-15 09:06N 35°39' E 139°46'1 4.8
2018-Jul-15 08:59N 35°39' E 139°46'4 8.4
2018-Jul-15 08:29N 35°35' E 139°48'0 0.1
2018-Jul-15 08:00N 35°35' E 139°48'4 7.6
2018-Jul-15 07:30N 35°38' E 139°46'1 0.4
2018-Jul-15 04:55N 35°39' E 139°46'1 2.4
2018-Jul-15 04:30N 35°38' E 139°46'4 8.4
2018-Jul-15 04:00N 35°34' E 139°48'3 4.6
2018-Jul-15 03:19N 35°37' E 139°46'2 0.2
2018-Jul-14 12:09N 35°39' E 139°46'1 4.8
2018-Jul-14 12:00N 35°38' E 139°46'5 7.7
2018-Jul-14 11:23N 35°34' E 139°49'3 6.3
2018-Jul-14 10:53N 35°37' E 139°46'2 1.4
2018-Jul-14 09:07N 35°39' E 139°46'1 5.2
2018-Jul-14 09:00N 35°39' E 139°46'4 8.2
2018-Jul-14 08:28N 35°35' E 139°48'1 1.8
2018-Jul-14 08:00N 35°35' E 139°47'4 1.3
2018-Jul-14 04:51N 35°39' E 139°46'2 6.1
2018-Jul-14 04:30N 35°37' E 139°46'3 7.2
2018-Jul-14 04:01N 35°34' E 139°48'3 5.7
2018-Jul-14 03:24N 35°37' E 139°46'2 1.3
2018-Jul-14 01:39N 35°39' E 139°46'0 0.0
2018-Jul-13 12:09N 35°39' E 139°46'1 4.4
2018-Jul-13 12:00N 35°39' E 139°46'4 7.9
2018-Jul-13 11:29N 35°35' E 139°48'2 2.7
2018-Jul-13 10:42N 35°37' E 139°46'3 1.7
2018-Jul-13 09:08N 35°39' E 139°46'1 4.1
2018-Jul-13 08:58N 35°39' E 139°46'4 7.9
2018-Jul-13 08:26N 35°35' E 139°48'0 1.1
2018-Jul-13 08:00N 35°35' E 139°48'4 1.3
2018-Jul-13 04:40N 35°39' E 139°46'1 6.4
2018-Jul-13 04:26N 35°37' E 139°46'3 7.4
2018-Jul-13 03:58N 35°34' E 139°48'2 4.2
2018-Jul-13 03:30N 35°36' E 139°47'3 0.2
2018-Jul-12 12:10N 35°39' E 139°46'1 3.8
2018-Jul-12 12:00N 35°39' E 139°46'4 8.1
2018-Jul-12 11:29N 35°35' E 139°48'0 0.8
2018-Jul-12 11:00N 35°35' E 139°48'5 2.5
2018-Jul-12 09:07N 35°39' E 139°46'1 4.5
2018-Jul-12 08:59N 35°39' E 139°46'3 5.6
2018-Jul-12 08:28N 35°36' E 139°47'0 0.5
2018-Jul-12 07:55N 35°36' E 139°47'3 0.9
2018-Jul-12 04:39N 35°38' E 139°46'2 8.9
2018-Jul-12 04:29N 35°37' E 139°46'4 7.6
2018-Jul-12 04:00N 35°34' E 139°48'6 0.4
2018-Jul-11 12:11N 35°39' E 139°46'  
Track history (hours):
 
Tides and Currents Weather Stations Pressure Air Temp Water Temp Dewpoint Dewpoint Depression Visibility Wind Speed Wind Dir Waves Ship Positions

Vingtetun

Last reported at 2018-Jul-21 12:09 UTC. Time now 2018-Jul-22 01:03 UTC.
Position N 35°39' E 139°46'.

Length 65 m; draft 2.7 m.

Type: Passenger vessel. MMSI: 7374127.

Date/timePositionNaut miles runAvg speedWind from/ knotsBaromVisibWave heightAir tempDewpointWater temp
2018-Jul-21 12:09N 35°39' E 139°46'1 3.8
2018-Jul-21 11:59N 35°39' E 139°46'4 8.2
2018-Jul-21 11:30N 35°35' E 139°48'0 0.4
2018-Jul-21 10:57N 35°35' E 139°47'4 2.5
2018-Jul-21 09:10N 35°39' E 139°46'1 3.7
2018-Jul-21 09:00N 35°39' E 139°46'4 7.5
2018-Jul-21 08:29N 35°35' E 139°48'0 0.5
2018-Jul-21 08:00N 35°35' E 139°47'4 1.3
2018-Jul-21 04:46N 35°39' E 139°46'2 6.6
2018-Jul-21 04:29N 35°37' E 139°46'4 7.5
2018-Jul-21 04:00N 35°34' E 139°48'3 5.1
2018-Jul-21 03:25N 35°36' E 139°46'3 0.2
2018-Jul-20 12:09N 35°39' E 139°46'1 3.9
2018-Jul-20 12:00N 35°39' E 139°46'4 8.0
2018-Jul-20 11:30N 35°35' E 139°48'0 0.3
2018-Jul-20 10:59N 35°35' E 139°47'4 1.9
2018-Jul-20 09:00N 35°38' E 139°46'4 6.6
2018-Jul-20 08:27N 35°35' E 139°48'1 2.2
2018-Jul-20 07:52N 35°36' E 139°47'3 6.7
2018-Jul-20 07:24N 35°39' E 139°46'0 0.0
2018-Jul-20 04:47N 35°39' E 139°46'2 7.1
2018-Jul-20 04:29N 35°37' E 139°46'4 7.6
2018-Jul-20 04:00N 35°34' E 139°48'4 5.5
2018-Jul-20 03:21N 35°37' E 139°46'2 0.1
2018-Jul-19 12:11N 35°39' E 139°46'1 4.5
2018-Jul-19 11:59N 35°38' E 139°46'4 8.5
2018-Jul-19 11:29N 35°34' E 139°48'1 1.1
2018-Jul-19 10:58N 35°35' E 139°48'4 2.5
2018-Jul-19 09:10N 35°39' E 139°46'1 4.2
2018-Jul-19 09:00N 35°38' E 139°46'4 7.9
2018-Jul-19 08:30N 35°35' E 139°48'0 0.8
2018-Jul-19 08:00N 35°35' E 139°47'4 1.4
2018-Jul-19 04:50N 35°39' E 139°46'2 6.1
2018-Jul-19 04:28N 35°37' E 139°46'4 8.2
2018-Jul-19 04:00N 35°34' E 139°48'4 5.6
2018-Jul-19 03:20N 35°37' E 139°46'2 0.4
2018-Jul-18 21:20N 35°39' E 139°46'0 0.0
2018-Jul-18 20:50N 35°39' E 139°46'0 0.0
2018-Jul-18 19:38N 35°39' E 139°46'0 0.0
2018-Jul-18 12:10N 35°39' E 139°46'1 4.2
2018-Jul-18 12:00N 35°38' E 139°46'5 8.2
2018-Jul-18 11:25N 35°34' E 139°49'5 5.0
2018-Jul-18 10:29N 35°38' E 139°46'1 0.6
2018-Jul-18 09:09N 35°39' E 139°46'1 4.8
2018-Jul-18 08:57N 35°38' E 139°46'4 8.4
2018-Jul-18 08:28N 35°35' E 139°48'0 0.8
2018-Jul-18 08:00N 35°35' E 139°48'5 1.5
2018-Jul-18 04:51N 35°39' E 139°46'2 5.9
2018-Jul-18 04:27N 35°37' E 139°46'4 7.9
2018-Jul-18 04:00N 35°34' E 139°49'4 5.6
2018-Jul-18 03:19N 35°37' E 139°46'2 0.2
2018-Jul-17 16:38N 35°39' E 139°46'0 0.0
2018-Jul-17 12:10N 35°39' E 139°46'1 3.9
2018-Jul-17 12:00N 35°38' E 139°46'4 7.5
2018-Jul-17 11:24N 35°35' E 139°48'1 1.3
2018-Jul-17 11:00N 35°35' E 139°48'4 8.0
2018-Jul-17 10:30N 35°38' E 139°46'1 0.7
2018-Jul-17 09:08N 35°39' E 139°46'1 3.9
2018-Jul-17 08:59N 35°39' E 139°46'4 7.8
2018-Jul-17 08:31N 35°35' E 139°48'0 0.4
2018-Jul-17 07:58N 35°35' E 139°48'4 1.4
2018-Jul-17 04:49N 35°39' E 139°46'2 5.9
2018-Jul-17 04:27N 35°37' E 139°46'4 8.0
2018-Jul-17 03:59N 35°34' E 139°48'4 5.8
2018-Jul-17 03:18N 35°37' E 139°46'2 0.1
2018-Jul-16 12:09N 35°39' E 139°46'1 4.0
2018-Jul-16 12:00N 35°39' E 139°46'4 7.5
2018-Jul-16 11:25N 35°35' E 139°48'1 1.5
2018-Jul-16 10:57N 35°35' E 139°48'4 8.0
2018-Jul-16 10:28N 35°38' E 139°46'1 0.6
2018-Jul-16 09:06N 35°39' E 139°46'0 3.7
2018-Jul-16 09:00N 35°39' E 139°46'4 7.5
2018-Jul-16 08:30N 35°35' E 139°48'0 0.7
2018-Jul-16 07:59N 35°35' E 139°48'4 7.7
2018-Jul-16 07:30N 35°38' E 139°46'1 0.3
2018-Jul-16 04:54N 35°39' E 139°46'2 5.2
2018-Jul-16 04:29N 35°37' E 139°46'4 8.1
2018-Jul-16 04:00N 35°34' E 139°49'3 5.2
2018-Jul-16 03:23N 35°37' E 139°46'3 0.2
2018-Jul-15 12:10N 35°39' E 139°46'2 6.2
2018-Jul-15 11:47N 35°37' E 139°46'3 8.1
2018-Jul-15 11:26N 35°35' E 139°48'1 1.2
2018-Jul-15 10:59N 35°35' E 139°48'5 2.4
2018-Jul-15 09:06N 35°39' E 139°46'1 4.8
2018-Jul-15 08:59N 35°39' E 139°46'4 8.4
2018-Jul-15 08:29N 35°35' E 139°48'0 0.1
2018-Jul-15 08:00N 35°35' E 139°48'4 7.6
2018-Jul-15 07:30N 35°38' E 139°46'1 0.4
2018-Jul-15 04:55N 35°39' E 139°46'1 2.4
2018-Jul-15 04:30N 35°38' E 139°46'4 8.4
2018-Jul-15 04:00N 35°34' E 139°48'3 4.6
2018-Jul-15 03:19N 35°37' E 139°46'2 0.2
2018-Jul-14 12:09N 35°39' E 139°46'1 4.8
2018-Jul-14 12:00N 35°38' E 139°46'5 7.7
2018-Jul-14 11:23N 35°34' E 139°49'3 6.3
2018-Jul-14 10:53N 35°37' E 139°46'2 1.4
2018-Jul-14 09:07N 35°39' E 139°46'1 5.2
2018-Jul-14 09:00N 35°39' E 139°46'4 8.2
2018-Jul-14 08:28N 35°35' E 139°48'1 1.8
2018-Jul-14 08:00N 35°35' E 139°47'4 1.3
2018-Jul-14 04:51N 35°39' E 139°46'2 6.1
2018-Jul-14 04:30N 35°37' E 139°46'3 7.2
2018-Jul-14 04:01N 35°34' E 139°48'3 5.7
2018-Jul-14 03:24N 35°37' E 139°46'2 1.3
2018-Jul-14 01:39N 35°39' E 139°46'0 0.0
2018-Jul-13 12:09N 35°39' E 139°46'1 4.4
2018-Jul-13 12:00N 35°39' E 139°46'4 7.9
2018-Jul-13 11:29N 35°35' E 139°48'2 2.7
2018-Jul-13 10:42N 35°37' E 139°46'3 1.7
2018-Jul-13 09:08N 35°39' E 139°46'1 4.1
2018-Jul-13 08:58N 35°39' E 139°46'4 7.9
2018-Jul-13 08:26N 35°35' E 139°48'0 1.1
2018-Jul-13 08:00N 35°35' E 139°48'4 1.3
2018-Jul-13 04:40N 35°39' E 139°46'1 6.4
2018-Jul-13 04:26N 35°37' E 139°46'3 7.4
2018-Jul-13 03:58N 35°34' E 139°48'2 4.2
2018-Jul-13 03:30N 35°36' E 139°47'3 0.2
2018-Jul-12 12:10N 35°39' E 139°46'1 3.8
2018-Jul-12 12:00N 35°39' E 139°46'4 8.1
2018-Jul-12 11:29N 35°35' E 139°48'0 0.8
2018-Jul-12 11:00N 35°35' E 139°48'5 2.5
2018-Jul-12 09:07N 35°39' E 139°46'1 4.5
2018-Jul-12 08:59N 35°39' E 139°46'3 5.6
2018-Jul-12 08:28N 35°36' E 139°47'0 0.5
2018-Jul-12 07:55N 35°36' E 139°47'3 0.9
2018-Jul-12 04:39N 35°38' E 139°46'2 8.9
2018-Jul-12 04:29N 35°37' E 139°46'4 7.6
2018-Jul-12 04:00N 35°34' E 139°48'6 0.4
2018-Jul-11 12:11N 35°39' E 139°46'  

Dump ship's entire track history